Aqualoyalty — A8ZC6 — position and weather

sailwx.info

Track history (hours):
 
Tides and Currents Weather Stations Pressure Air Temp Water Temp Dewpoint Dewpoint Depression Visibility Wind Speed Wind Dir Waves Ship Positions

Aqualoyalty

Last reported at 2016-Aug-30 20:31 UTC. Time now 2016-Aug-30 20:55 UTC.
Position N 33°54' W 118°29'.

Length 249 m; draft 13.5 m.

Type: Ship. MMSI: 636015177.

Date/timePositionNaut miles runAvg speedWind from/ knotsBaromVisibWave heightAir tempDewpointWater temp
2016-Aug-30 20:31N 33°54' W 118°29'0 0.0
2016-Aug-30 19:28N 33°54' W 118°29'0 0.0
2016-Aug-30 18:19N 33°54' W 118°29'0 0.1
2016-Aug-30 17:31N 33°54' W 118°29'0 0.1
2016-Aug-30 16:31N 33°54' W 118°29'0 0.0
2016-Aug-30 15:31N 33°54' W 118°29'0 0.0
2016-Aug-30 14:25N 33°54' W 118°29'0 0.0
2016-Aug-30 13:31N 33°54' W 118°29'0 0.0
2016-Aug-30 12:31N 33°54' W 118°29'0 0.0
2016-Aug-30 11:31N 33°54' W 118°29'0 0.0
2016-Aug-30 10:31N 33°54' W 118°29'0 0.1
2016-Aug-30 09:31N 33°54' W 118°29'0 0.1
2016-Aug-30 08:31N 33°54' W 118°29'0 0.0
2016-Aug-30 07:31N 33°54' W 118°29'0 0.0
2016-Aug-30 06:31N 33°54' W 118°29'0 0.0
2016-Aug-30 05:31N 33°54' W 118°29'0 0.0
2016-Aug-30 04:28N 33°54' W 118°29'0 0.0
2016-Aug-30 03:22N 33°54' W 118°29'0 0.0
2016-Aug-30 02:31N 33°54' W 118°29'0 0.1
2016-Aug-30 01:31N 33°54' W 118°29'0 0.0
2016-Aug-30 00:31N 33°54' W 118°29'0 0.0
2016-Aug-29 23:19N 33°54' W 118°29'0 0.0
2016-Aug-29 22:31N 33°54' W 118°29'0 0.1
2016-Aug-29 21:31N 33°54' W 118°29'0 0.0
2016-Aug-29 20:04N 33°54' W 118°29'0 0.0
2016-Aug-29 19:31N 33°54' W 118°29'0 0.0
2016-Aug-29 18:33N 33°54' W 118°29'1 0.9
2016-Aug-29 17:33N 33°53' W 118°30'8 8.4
2016-Aug-29 16:33N 33°45' W 118°30'1110.9
2016-Aug-29 15:33N 33°39' W 118°19'8 8.1
2016-Aug-29 14:33N 33°43' W 118°11'1 1.3
2016-Aug-29 13:32N 33°44' W 118°10'0 0.1
2016-Aug-29 12:26N 33°44' W 118°10'0 0.1
2016-Aug-29 11:32N 33°44' W 118°10'0 0.0
2016-Aug-29 10:32N 33°44' W 118°10'0 0.0
2016-Aug-29 09:29N 33°44' W 118°10'0 0.1
2016-Aug-29 08:29N 33°44' W 118°10'0 0.0
2016-Aug-29 07:32N 33°44' W 118°10'0 0.0
2016-Aug-29 06:32N 33°44' W 118°10'0 0.0
2016-Aug-29 05:29N 33°44' W 118°10'0 0.1
2016-Aug-29 04:32N 33°44' W 118°10'0 0.0
2016-Aug-29 03:32N 33°44' W 118°10'0 0.0
2016-Aug-29 02:32N 33°44' W 118°10'0 0.0
2016-Aug-29 01:32N 33°44' W 118°10'0 0.0
2016-Aug-29 00:32N 33°44' W 118°10'0 0.0
2016-Aug-28 23:29N 33°44' W 118°10'0 0.0
2016-Aug-28 22:32N 33°44' W 118°10'0 0.0
2016-Aug-28 21:32N 33°44' W 118°10'0 0.0
2016-Aug-28 20:32N 33°44' W 118°10'0 0.0
2016-Aug-28 19:32N 33°44' W 118°10'0 0.1
2016-Aug-28 18:29N 33°44' W 118°10'0 0.0
2016-Aug-28 17:28N 33°44' W 118°10'0 0.0
2016-Aug-28 16:31N 33°44' W 118°10'0 0.0
2016-Aug-28 15:31N 33°44' W 118°10'0 0.0
2016-Aug-28 14:28N 33°44' W 118°10'0 0.1
2016-Aug-28 13:31N 33°44' W 118°10'0 0.0
2016-Aug-28 12:25N 33°44' W 118°10'0 0.0
2016-Aug-28 11:31N 33°44' W 118°10'0 0.0
2016-Aug-28 10:31N 33°44' W 118°10'0 0.1
2016-Aug-28 09:31N 33°44' W 118°10'0 0.0
2016-Aug-28 08:31N 33°44' W 118°10'0 0.0
2016-Aug-28 07:31N 33°44' W 118°10'0 0.0
2016-Aug-28 06:28N 33°44' W 118°10'0 0.0
2016-Aug-28 05:31N 33°44' W 118°10'0 0.0
2016-Aug-28 04:28N 33°44' W 118°10'0 0.0
2016-Aug-28 03:28N 33°44' W 118°10'0 0.0
2016-Aug-28 02:28N 33°44' W 118°10'0 0.0
2016-Aug-27 23:16N 33°44' W 118°10'0 0.1
2016-Aug-27 22:13N 33°44' W 118°10'0 0.1
2016-Aug-27 20:31N 33°44' W 118°10'0 0.2
2016-Aug-27 19:32N 33°44' W 118°10'4 4.2
2016-Aug-27 18:33N 33°40' W 118°10'9 9.5
2016-Aug-27 17:33N 33°30' W 118°08'1211.7
2016-Aug-27 16:33N 33°19' W 118°03'1211.6
2016-Aug-27 15:33N 33°08' W 117°58'1313.1
2016-Aug-27 14:33N 32°56' W 117°53'1313.4
2016-Aug-27 13:33N 32°43' W 117°48'1212.4
2016-Aug-27 12:33N 32°31' W 117°44'7 7.4
2016-Aug-27 11:33N 32°25' W 117°40'1010.3
2016-Aug-27 10:33N 32°15' W 117°37'1311.8
2016-Aug-27 09:27N 32°02' W 117°33'1613.1
2016-Aug-27 08:12N 31°46' W 117°28'  
Track history (hours):
 
Tides and Currents Weather Stations Pressure Air Temp Water Temp Dewpoint Dewpoint Depression Visibility Wind Speed Wind Dir Waves Ship Positions

Aqualoyalty

Last reported at 2016-Aug-30 20:31 UTC. Time now 2016-Aug-30 20:55 UTC.
Position N 33°54' W 118°29'.

Length 249 m; draft 13.5 m.

Type: Ship. MMSI: 636015177.

Date/timePositionNaut miles runAvg speedWind from/ knotsBaromVisibWave heightAir tempDewpointWater temp
2016-Aug-30 20:31N 33°54' W 118°29'0 0.0
2016-Aug-30 19:28N 33°54' W 118°29'0 0.0
2016-Aug-30 18:19N 33°54' W 118°29'0 0.1
2016-Aug-30 17:31N 33°54' W 118°29'0 0.1
2016-Aug-30 16:31N 33°54' W 118°29'0 0.0
2016-Aug-30 15:31N 33°54' W 118°29'0 0.0
2016-Aug-30 14:25N 33°54' W 118°29'0 0.0
2016-Aug-30 13:31N 33°54' W 118°29'0 0.0
2016-Aug-30 12:31N 33°54' W 118°29'0 0.0
2016-Aug-30 11:31N 33°54' W 118°29'0 0.0
2016-Aug-30 10:31N 33°54' W 118°29'0 0.1
2016-Aug-30 09:31N 33°54' W 118°29'0 0.1
2016-Aug-30 08:31N 33°54' W 118°29'0 0.0
2016-Aug-30 07:31N 33°54' W 118°29'0 0.0
2016-Aug-30 06:31N 33°54' W 118°29'0 0.0
2016-Aug-30 05:31N 33°54' W 118°29'0 0.0
2016-Aug-30 04:28N 33°54' W 118°29'0 0.0
2016-Aug-30 03:22N 33°54' W 118°29'0 0.0
2016-Aug-30 02:31N 33°54' W 118°29'0 0.1
2016-Aug-30 01:31N 33°54' W 118°29'0 0.0
2016-Aug-30 00:31N 33°54' W 118°29'0 0.0
2016-Aug-29 23:19N 33°54' W 118°29'0 0.0
2016-Aug-29 22:31N 33°54' W 118°29'0 0.1
2016-Aug-29 21:31N 33°54' W 118°29'0 0.0
2016-Aug-29 20:04N 33°54' W 118°29'0 0.0
2016-Aug-29 19:31N 33°54' W 118°29'0 0.0
2016-Aug-29 18:33N 33°54' W 118°29'1 0.9
2016-Aug-29 17:33N 33°53' W 118°30'8 8.4
2016-Aug-29 16:33N 33°45' W 118°30'1110.9
2016-Aug-29 15:33N 33°39' W 118°19'8 8.1
2016-Aug-29 14:33N 33°43' W 118°11'1 1.3
2016-Aug-29 13:32N 33°44' W 118°10'0 0.1
2016-Aug-29 12:26N 33°44' W 118°10'0 0.1
2016-Aug-29 11:32N 33°44' W 118°10'0 0.0
2016-Aug-29 10:32N 33°44' W 118°10'0 0.0
2016-Aug-29 09:29N 33°44' W 118°10'0 0.1
2016-Aug-29 08:29N 33°44' W 118°10'0 0.0
2016-Aug-29 07:32N 33°44' W 118°10'0 0.0
2016-Aug-29 06:32N 33°44' W 118°10'0 0.0
2016-Aug-29 05:29N 33°44' W 118°10'0 0.1
2016-Aug-29 04:32N 33°44' W 118°10'0 0.0
2016-Aug-29 03:32N 33°44' W 118°10'0 0.0
2016-Aug-29 02:32N 33°44' W 118°10'0 0.0
2016-Aug-29 01:32N 33°44' W 118°10'0 0.0
2016-Aug-29 00:32N 33°44' W 118°10'0 0.0
2016-Aug-28 23:29N 33°44' W 118°10'0 0.0
2016-Aug-28 22:32N 33°44' W 118°10'0 0.0
2016-Aug-28 21:32N 33°44' W 118°10'0 0.0
2016-Aug-28 20:32N 33°44' W 118°10'0 0.0
2016-Aug-28 19:32N 33°44' W 118°10'0 0.1
2016-Aug-28 18:29N 33°44' W 118°10'0 0.0
2016-Aug-28 17:28N 33°44' W 118°10'0 0.0
2016-Aug-28 16:31N 33°44' W 118°10'0 0.0
2016-Aug-28 15:31N 33°44' W 118°10'0 0.0
2016-Aug-28 14:28N 33°44' W 118°10'0 0.1
2016-Aug-28 13:31N 33°44' W 118°10'0 0.0
2016-Aug-28 12:25N 33°44' W 118°10'0 0.0
2016-Aug-28 11:31N 33°44' W 118°10'0 0.0
2016-Aug-28 10:31N 33°44' W 118°10'0 0.1
2016-Aug-28 09:31N 33°44' W 118°10'0 0.0
2016-Aug-28 08:31N 33°44' W 118°10'0 0.0
2016-Aug-28 07:31N 33°44' W 118°10'0 0.0
2016-Aug-28 06:28N 33°44' W 118°10'0 0.0
2016-Aug-28 05:31N 33°44' W 118°10'0 0.0
2016-Aug-28 04:28N 33°44' W 118°10'0 0.0
2016-Aug-28 03:28N 33°44' W 118°10'0 0.0
2016-Aug-28 02:28N 33°44' W 118°10'0 0.0
2016-Aug-27 23:16N 33°44' W 118°10'0 0.1
2016-Aug-27 22:13N 33°44' W 118°10'0 0.1
2016-Aug-27 20:31N 33°44' W 118°10'0 0.2
2016-Aug-27 19:32N 33°44' W 118°10'4 4.2
2016-Aug-27 18:33N 33°40' W 118°10'9 9.5
2016-Aug-27 17:33N 33°30' W 118°08'1211.7
2016-Aug-27 16:33N 33°19' W 118°03'1211.6
2016-Aug-27 15:33N 33°08' W 117°58'1313.1
2016-Aug-27 14:33N 32°56' W 117°53'1313.4
2016-Aug-27 13:33N 32°43' W 117°48'1212.4
2016-Aug-27 12:33N 32°31' W 117°44'7 7.4
2016-Aug-27 11:33N 32°25' W 117°40'1010.3
2016-Aug-27 10:33N 32°15' W 117°37'1311.8
2016-Aug-27 09:27N 32°02' W 117°33'1613.1
2016-Aug-27 08:12N 31°46' W 117°28'  

Dump ship's entire track history